Jeff, Kentucky
Current Conditions -  °F | °C
As of 5:15 PM on Sunday 23 Nov 2014 (Local Time) from KI35 Reporting Station
Overcast Overcast  
Wind Chill: 54°   Ceiling: 9000
Heat Index: 54°   Visibility: 10mi
Dew Point: 50°   Wind: 16mph
Humidity: 88%   Direction: 120°ESE
Pressure: 29.65"   Gusts: 28mph
Location:  37.21°N, 83.13°W
Report Text: KI35 232215Z AUTO 12014G24KT 090V150 10SM OVC090 12/10 A2965 RMK AO1
Loading
Personal Weather Stations






























Interactive Weather Map New forecast layout! Learn more

10-Day Weather Forecast

Advertisements
Track Severe Weather on mobile